sensor_id;sensor_type;location;lat;lon;timestamp;P1;durP1;ratioP1;P2;durP2;ratioP2
58972;SDS011;44750;52.040;7.472;2023-07-13T00:03:05;1.87;;;1.10;;
58972;SDS011;44750;52.040;7.472;2023-07-13T00:08:05;2.60;;;1.48;;
58972;SDS011;44750;52.040;7.472;2023-07-13T00:13:05;2.08;;;1.33;;
58972;SDS011;44750;52.040;7.472;2023-07-13T00:18:05;2.55;;;1.33;;
58972;SDS011;44750;52.040;7.472;2023-07-13T00:23:06;9.20;;;1.52;;
58972;SDS011;44750;52.040;7.472;2023-07-13T00:28:07;1.38;;;1.05;;
58972;SDS011;44750;52.040;7.472;2023-07-13T00:33:07;2.53;;;1.17;;
58972;SDS011;44750;52.040;7.472;2023-07-13T00:38:07;1.58;;;1.05;;
58972;SDS011;44750;52.040;7.472;2023-07-13T00:43:12;2.57;;;1.23;;
58972;SDS011;44750;52.040;7.472;2023-07-13T00:48:21;1.98;;;1.00;;
58972;SDS011;44750;52.040;7.472;2023-07-13T00:53:26;2.15;;;1.20;;
58972;SDS011;44750;52.040;7.472;2023-07-13T00:58:28;3.22;;;1.27;;
58972;SDS011;44750;52.040;7.472;2023-07-13T01:03:29;1.80;;;1.25;;
58972;SDS011;44750;52.040;7.472;2023-07-13T01:08:29;6.63;;;1.90;;
58972;SDS011;44750;52.040;7.472;2023-07-13T01:13:29;2.55;;;1.05;;
58972;SDS011;44750;52.040;7.472;2023-07-13T01:18:30;7.77;;;1.30;;
58972;SDS011;44750;52.040;7.472;2023-07-13T01:23:31;1.25;;;0.82;;
58972;SDS011;44750;52.040;7.472;2023-07-13T01:28:32;4.40;;;1.45;;
58972;SDS011;44750;52.040;7.472;2023-07-13T01:33:32;2.53;;;1.35;;
58972;SDS011;44750;52.040;7.472;2023-07-13T01:38:33;1.50;;;0.77;;
58972;SDS011;44750;52.040;7.472;2023-07-13T01:43:34;1.35;;;1.13;;
58972;SDS011;44750;52.040;7.472;2023-07-13T01:48:35;5.90;;;1.30;;
58972;SDS011;44750;52.040;7.472;2023-07-13T01:53:35;4.40;;;1.17;;
58972;SDS011;44750;52.040;7.472;2023-07-13T01:58:35;1.87;;;1.00;;
58972;SDS011;44750;52.040;7.472;2023-07-13T02:03:35;2.70;;;1.23;;
58972;SDS011;44750;52.040;7.472;2023-07-13T02:08:36;0.80;;;0.80;;
58972;SDS011;44750;52.040;7.472;2023-07-13T02:13:37;2.58;;;1.20;;
58972;SDS011;44750;52.040;7.472;2023-07-13T02:18:37;1.60;;;1.13;;
58972;SDS011;44750;52.040;7.472;2023-07-13T02:23:37;1.43;;;1.00;;
58972;SDS011;44750;52.040;7.472;2023-07-13T02:28:38;5.53;;;1.43;;
58972;SDS011;44750;52.040;7.472;2023-07-13T02:33:38;6.90;;;1.20;;
58972;SDS011;44750;52.040;7.472;2023-07-13T02:38:39;1.58;;;1.00;;
58972;SDS011;44750;52.040;7.472;2023-07-13T02:43:39;1.77;;;0.93;;
58972;SDS011;44750;52.040;7.472;2023-07-13T02:48:39;3.92;;;1.35;;
58972;SDS011;44750;52.040;7.472;2023-07-13T02:53:40;2.33;;;1.38;;
58972;SDS011;44750;52.040;7.472;2023-07-13T02:58:40;3.43;;;1.10;;
58972;SDS011;44750;52.040;7.472;2023-07-13T03:03:40;4.53;;;1.00;;
58972;SDS011;44750;52.040;7.472;2023-07-13T03:08:41;2.50;;;0.75;;
58972;SDS011;44750;52.040;7.472;2023-07-13T03:13:41;2.83;;;0.98;;
58972;SDS011;44750;52.040;7.472;2023-07-13T03:18:42;1.75;;;1.20;;
58972;SDS011;44750;52.040;7.472;2023-07-13T03:23:42;8.50;;;1.52;;
58972;SDS011;44750;52.040;7.472;2023-07-13T03:28:43;1.67;;;1.00;;
58972;SDS011;44750;52.040;7.472;2023-07-13T03:33:44;4.70;;;1.27;;
58972;SDS011;44750;52.040;7.472;2023-07-13T03:38:48;3.10;;;1.35;;
58972;SDS011;44750;52.040;7.472;2023-07-13T03:43:50;1.10;;;0.90;;
58972;SDS011;44750;52.040;7.472;2023-07-13T03:48:50;2.20;;;1.20;;
58972;SDS011;44750;52.040;7.472;2023-07-13T03:53:51;2.78;;;1.15;;
58972;SDS011;44750;52.040;7.472;2023-07-13T03:58:51;1.17;;;1.00;;
58972;SDS011;44750;52.040;7.472;2023-07-13T04:03:52;4.65;;;1.08;;
58972;SDS011;44750;52.040;7.472;2023-07-13T04:08:53;1.30;;;1.00;;
58972;SDS011;44750;52.040;7.472;2023-07-13T04:13:55;5.07;;;1.20;;
58972;SDS011;44750;52.040;7.472;2023-07-13T04:18:57;2.17;;;1.20;;
58972;SDS011;44750;52.040;7.472;2023-07-13T04:23:57;6.55;;;1.30;;
58972;SDS011;44750;52.040;7.472;2023-07-13T04:28:58;1.50;;;1.05;;
58972;SDS011;44750;52.040;7.472;2023-07-13T04:33:58;1.63;;;1.08;;
58972;SDS011;44750;52.040;7.472;2023-07-13T04:38:58;1.57;;;0.80;;
58972;SDS011;44750;52.040;7.472;2023-07-13T04:43:59;11.23;;;0.90;;
58972;SDS011;44750;52.040;7.472;2023-07-13T04:48:59;1.60;;;0.70;;
58972;SDS011;44750;52.040;7.472;2023-07-13T04:53:59;1.13;;;0.77;;
58972;SDS011;44750;52.040;7.472;2023-07-13T04:59:00;2.40;;;1.27;;
58972;SDS011;44750;52.040;7.472;2023-07-13T05:04:00;1.73;;;0.85;;
58972;SDS011;44750;52.040;7.472;2023-07-13T05:09:00;1.80;;;1.30;;
58972;SDS011;44750;52.040;7.472;2023-07-13T05:14:01;6.55;;;1.58;;
58972;SDS011;44750;52.040;7.472;2023-07-13T05:19:04;6.65;;;1.02;;
58972;SDS011;44750;52.040;7.472;2023-07-13T05:24:04;3.67;;;1.67;;
58972;SDS011;44750;52.040;7.472;2023-07-13T05:29:05;1.47;;;0.93;;
58972;SDS011;44750;52.040;7.472;2023-07-13T05:34:05;2.47;;;1.42;;
58972;SDS011;44750;52.040;7.472;2023-07-13T05:39:05;2.10;;;1.07;;
58972;SDS011;44750;52.040;7.472;2023-07-13T05:44:06;3.87;;;1.60;;
58972;SDS011;44750;52.040;7.472;2023-07-13T05:49:06;1.90;;;1.37;;
58972;SDS011;44750;52.040;7.472;2023-07-13T05:54:06;2.28;;;1.30;;
58972;SDS011;44750;52.040;7.472;2023-07-13T05:59:06;2.75;;;1.20;;
58972;SDS011;44750;52.040;7.472;2023-07-13T06:04:07;1.83;;;1.20;;
58972;SDS011;44750;52.040;7.472;2023-07-13T06:09:07;1.30;;;1.20;;
58972;SDS011;44750;52.040;7.472;2023-07-13T06:14:07;3.08;;;1.50;;
58972;SDS011;44750;52.040;7.472;2023-07-13T06:19:07;1.23;;;1.10;;
58972;SDS011;44750;52.040;7.472;2023-07-13T06:24:08;1.67;;;1.27;;
58972;SDS011;44750;52.040;7.472;2023-07-13T06:29:08;1.40;;;1.20;;
58972;SDS011;44750;52.040;7.472;2023-07-13T06:34:08;5.05;;;1.33;;
58972;SDS011;44750;52.040;7.472;2023-07-13T06:39:08;5.18;;;1.30;;
58972;SDS011;44750;52.040;7.472;2023-07-13T06:44:09;1.33;;;0.90;;
58972;SDS011;44750;52.040;7.472;2023-07-13T06:49:09;1.98;;;1.30;;
58972;SDS011;44750;52.040;7.472;2023-07-13T06:54:09;1.83;;;1.23;;
58972;SDS011;44750;52.040;7.472;2023-07-13T06:59:10;4.07;;;1.30;;
58972;SDS011;44750;52.040;7.472;2023-07-13T07:04:10;7.00;;;1.63;;
58972;SDS011;44750;52.040;7.472;2023-07-13T07:09:10;1.83;;;1.35;;
58972;SDS011;44750;52.040;7.472;2023-07-13T07:14:10;1.45;;;1.08;;
58972;SDS011;44750;52.040;7.472;2023-07-13T07:19:11;1.33;;;1.05;;
58972;SDS011;44750;52.040;7.472;2023-07-13T07:24:11;4.27;;;1.60;;
58972;SDS011;44750;52.040;7.472;2023-07-13T07:29:11;2.28;;;1.60;;
58972;SDS011;44750;52.040;7.472;2023-07-13T07:34:11;4.38;;;1.65;;
58972;SDS011;44750;52.040;7.472;2023-07-13T07:39:12;3.10;;;1.70;;
58972;SDS011;44750;52.040;7.472;2023-07-13T07:44:12;2.38;;;1.70;;
58972;SDS011;44750;52.040;7.472;2023-07-13T07:49:12;2.60;;;1.67;;
58972;SDS011;44750;52.040;7.472;2023-07-13T07:54:13;3.58;;;2.13;;
58972;SDS011;44750;52.040;7.472;2023-07-13T07:59:13;3.92;;;2.08;;
58972;SDS011;44750;52.040;7.472;2023-07-13T08:04:13;2.30;;;1.88;;
58972;SDS011;44750;52.040;7.472;2023-07-13T08:09:14;3.45;;;1.70;;
58972;SDS011;44750;52.040;7.472;2023-07-13T08:14:14;2.03;;;1.42;;
58972;SDS011;44750;52.040;7.472;2023-07-13T08:19:14;3.90;;;2.05;;
58972;SDS011;44750;52.040;7.472;2023-07-13T08:24:14;4.30;;;2.42;;
58972;SDS011;44750;52.040;7.472;2023-07-13T08:29:15;2.83;;;2.00;;
58972;SDS011;44750;52.040;7.472;2023-07-13T08:34:15;4.75;;;1.92;;
58972;SDS011;44750;52.040;7.472;2023-07-13T08:39:15;2.83;;;2.15;;
58972;SDS011;44750;52.040;7.472;2023-07-13T08:44:25;4.15;;;2.20;;
58972;SDS011;44750;52.040;7.472;2023-07-13T08:49:35;5.07;;;1.80;;
58972;SDS011;44750;52.040;7.472;2023-07-13T08:54:47;2.10;;;1.65;;
58972;SDS011;44750;52.040;7.472;2023-07-13T08:59:50;3.88;;;1.50;;
58972;SDS011;44750;52.040;7.472;2023-07-13T09:04:55;2.72;;;1.88;;
58972;SDS011;44750;52.040;7.472;2023-07-13T09:15:46;2.17;;;1.60;;
58972;SDS011;44750;52.040;7.472;2023-07-13T09:26:05;3.63;;;1.58;;
58972;SDS011;44750;52.040;7.472;2023-07-13T09:31:16;2.47;;;1.58;;
58972;SDS011;44750;52.040;7.472;2023-07-13T09:36:24;3.63;;;2.10;;
58972;SDS011;44750;52.040;7.472;2023-07-13T09:46:52;1.42;;;1.30;;
58972;SDS011;44750;52.040;7.472;2023-07-13T09:51:58;6.47;;;2.40;;
58972;SDS011;44750;52.040;7.472;2023-07-13T09:57:00;2.85;;;1.75;;
58972;SDS011;44750;52.040;7.472;2023-07-13T10:02:02;5.43;;;2.10;;
58972;SDS011;44750;52.040;7.472;2023-07-13T10:07:22;7.13;;;1.88;;
58972;SDS011;44750;52.040;7.472;2023-07-13T10:12:23;2.63;;;1.60;;
58972;SDS011;44750;52.040;7.472;2023-07-13T10:17:29;2.72;;;1.55;;
58972;SDS011;44750;52.040;7.472;2023-07-13T10:22:33;8.10;;;1.65;;
58972;SDS011;44750;52.040;7.472;2023-07-13T10:27:42;1.85;;;1.40;;
58972;SDS011;44750;52.040;7.472;2023-07-13T10:32:43;3.67;;;1.70;;
58972;SDS011;44750;52.040;7.472;2023-07-13T10:42:57;4.47;;;1.77;;
58972;SDS011;44750;52.040;7.472;2023-07-13T10:48:01;5.13;;;2.10;;
58972;SDS011;44750;52.040;7.472;2023-07-13T10:53:17;2.08;;;1.52;;
58972;SDS011;44750;52.040;7.472;2023-07-13T11:03:28;4.25;;;1.63;;
58972;SDS011;44750;52.040;7.472;2023-07-13T11:13:38;1.88;;;1.10;;
58972;SDS011;44750;52.040;7.472;2023-07-13T11:34:21;2.03;;;1.00;;
58972;SDS011;44750;52.040;7.472;2023-07-13T11:39:31;2.78;;;1.13;;
58972;SDS011;44750;52.040;7.472;2023-07-13T11:44:34;2.10;;;1.00;;
58972;SDS011;44750;52.040;7.472;2023-07-13T11:49:40;2.00;;;0.98;;
58972;SDS011;44750;52.040;7.472;2023-07-13T11:54:53;1.58;;;0.82;;
58972;SDS011;44750;52.040;7.472;2023-07-13T11:59:55;5.90;;;1.05;;
58972;SDS011;44750;52.040;7.472;2023-07-13T12:04:56;0.90;;;0.90;;
58972;SDS011;44750;52.040;7.472;2023-07-13T12:10:01;2.35;;;1.45;;
58972;SDS011;44750;52.040;7.472;2023-07-13T12:15:16;2.08;;;1.50;;
58972;SDS011;44750;52.040;7.472;2023-07-13T12:20:19;1.52;;;1.00;;
58972;SDS011;44750;52.040;7.472;2023-07-13T12:25:28;3.28;;;1.27;;
58972;SDS011;44750;52.040;7.472;2023-07-13T12:30:30;2.67;;;1.40;;
58972;SDS011;44750;52.040;7.472;2023-07-13T12:35:38;2.03;;;1.38;;
58972;SDS011;44750;52.040;7.472;2023-07-13T12:40:41;3.10;;;1.00;;
58972;SDS011;44750;52.040;7.472;2023-07-13T12:45:55;1.23;;;1.05;;
58972;SDS011;44750;52.040;7.472;2023-07-13T12:50:56;2.90;;;1.92;;
58972;SDS011;44750;52.040;7.472;2023-07-13T12:56:01;3.22;;;1.65;;
58972;SDS011;44750;52.040;7.472;2023-07-13T13:01:03;3.88;;;1.80;;
58972;SDS011;44750;52.040;7.472;2023-07-13T13:11:17;7.03;;;1.17;;
58972;SDS011;44750;52.040;7.472;2023-07-13T13:21:23;4.03;;;1.92;;
58972;SDS011;44750;52.040;7.472;2023-07-13T13:26:24;3.72;;;1.33;;
58972;SDS011;44750;52.040;7.472;2023-07-13T13:31:24;2.60;;;0.88;;
58972;SDS011;44750;52.040;7.472;2023-07-13T13:36:25;1.02;;;0.70;;
58972;SDS011;44750;52.040;7.472;2023-07-13T13:41:25;1.38;;;0.98;;
58972;SDS011;44750;52.040;7.472;2023-07-13T13:46:25;1.25;;;1.05;;
58972;SDS011;44750;52.040;7.472;2023-07-13T13:51:25;1.60;;;1.20;;
58972;SDS011;44750;52.040;7.472;2023-07-13T13:56:26;2.10;;;1.30;;
58972;SDS011;44750;52.040;7.472;2023-07-13T14:01:26;1.85;;;1.20;;
58972;SDS011;44750;52.040;7.472;2023-07-13T14:06:27;1.02;;;0.93;;
58972;SDS011;44750;52.040;7.472;2023-07-13T14:11:28;1.20;;;0.90;;
58972;SDS011;44750;52.040;7.472;2023-07-13T14:16:31;2.15;;;1.27;;
58972;SDS011;44750;52.040;7.472;2023-07-13T14:21:33;2.90;;;1.52;;
58972;SDS011;44750;52.040;7.472;2023-07-13T14:26:35;1.48;;;1.00;;
58972;SDS011;44750;52.040;7.472;2023-07-13T14:31:37;0.80;;;0.80;;
58972;SDS011;44750;52.040;7.472;2023-07-13T14:36:39;1.80;;;1.30;;
58972;SDS011;44750;52.040;7.472;2023-07-13T14:41:42;2.58;;;1.10;;
58972;SDS011;44750;52.040;7.472;2023-07-13T14:46:43;1.98;;;1.50;;
58972;SDS011;44750;52.040;7.472;2023-07-13T14:51:45;1.52;;;1.05;;
58972;SDS011;44750;52.040;7.472;2023-07-13T14:56:45;1.83;;;1.30;;
58972;SDS011;44750;52.040;7.472;2023-07-13T15:01:46;2.13;;;1.20;;
58972;SDS011;44750;52.040;7.472;2023-07-13T15:06:53;3.13;;;1.50;;
58972;SDS011;44750;52.040;7.472;2023-07-13T15:11:55;1.20;;;0.90;;
58972;SDS011;44750;52.040;7.472;2023-07-13T15:16:56;1.65;;;1.27;;
58972;SDS011;44750;52.040;7.472;2023-07-13T15:21:56;2.85;;;1.05;;
58972;SDS011;44750;52.040;7.472;2023-07-13T15:26:57;2.92;;;1.13;;
58972;SDS011;44750;52.040;7.472;2023-07-13T15:31:57;2.33;;;0.90;;
58972;SDS011;44750;52.040;7.472;2023-07-13T15:36:57;1.23;;;0.88;;
58972;SDS011;44750;52.040;7.472;2023-07-13T15:41:58;0.90;;;0.77;;
58972;SDS011;44750;52.040;7.472;2023-07-13T15:46:58;1.75;;;1.00;;
58972;SDS011;44750;52.040;7.472;2023-07-13T15:51:58;2.50;;;1.03;;
58972;SDS011;44750;52.040;7.472;2023-07-13T15:57:00;0.98;;;0.70;;
58972;SDS011;44750;52.040;7.472;2023-07-13T16:02:04;1.65;;;0.77;;
58972;SDS011;44750;52.040;7.472;2023-07-13T16:07:12;1.65;;;0.73;;
58972;SDS011;44750;52.040;7.472;2023-07-13T16:12:14;0.80;;;0.80;;
58972;SDS011;44750;52.040;7.472;2023-07-13T16:17:16;1.33;;;1.10;;
58972;SDS011;44750;52.040;7.472;2023-07-13T16:22:16;2.53;;;1.30;;
58972;SDS011;44750;52.040;7.472;2023-07-13T16:27:19;1.35;;;0.95;;
58972;SDS011;44750;52.040;7.472;2023-07-13T16:32:19;4.07;;;1.27;;
58972;SDS011;44750;52.040;7.472;2023-07-13T16:37:27;2.67;;;1.83;;
58972;SDS011;44750;52.040;7.472;2023-07-13T16:42:29;3.90;;;1.10;;
58972;SDS011;44750;52.040;7.472;2023-07-13T16:47:29;4.88;;;1.15;;
58972;SDS011;44750;52.040;7.472;2023-07-13T16:52:29;4.15;;;1.10;;
58972;SDS011;44750;52.040;7.472;2023-07-13T16:57:31;1.17;;;1.08;;
58972;SDS011;44750;52.040;7.472;2023-07-13T17:02:33;1.77;;;1.27;;
58972;SDS011;44750;52.040;7.472;2023-07-13T17:07:35;1.52;;;0.98;;
58972;SDS011;44750;52.040;7.472;2023-07-13T17:12:36;1.13;;;1.03;;
58972;SDS011;44750;52.040;7.472;2023-07-13T17:17:36;3.13;;;1.40;;
58972;SDS011;44750;52.040;7.472;2023-07-13T17:22:38;1.48;;;1.20;;
58972;SDS011;44750;52.040;7.472;2023-07-13T17:27:38;1.92;;;1.50;;
58972;SDS011;44750;52.040;7.472;2023-07-13T17:32:39;1.52;;;1.08;;
58972;SDS011;44750;52.040;7.472;2023-07-13T17:37:40;1.27;;;1.05;;
58972;SDS011;44750;52.040;7.472;2023-07-13T17:42:40;1.30;;;1.20;;
58972;SDS011;44750;52.040;7.472;2023-07-13T17:47:40;1.92;;;1.45;;
58972;SDS011;44750;52.040;7.472;2023-07-13T17:52:40;2.30;;;1.67;;
58972;SDS011;44750;52.040;7.472;2023-07-13T17:57:41;4.13;;;1.48;;
58972;SDS011;44750;52.040;7.472;2023-07-13T18:02:41;2.08;;;1.48;;
58972;SDS011;44750;52.040;7.472;2023-07-13T18:07:41;4.90;;;2.40;;
58972;SDS011;44750;52.040;7.472;2023-07-13T18:12:42;2.63;;;1.60;;
58972;SDS011;44750;52.040;7.472;2023-07-13T18:17:46;0.80;;;0.80;;
58972;SDS011;44750;52.040;7.472;2023-07-13T18:22:48;1.73;;;1.05;;
58972;SDS011;44750;52.040;7.472;2023-07-13T18:27:49;1.63;;;1.10;;
58972;SDS011;44750;52.040;7.472;2023-07-13T18:32:51;1.93;;;1.30;;
58972;SDS011;44750;52.040;7.472;2023-07-13T18:37:52;1.25;;;1.15;;
58972;SDS011;44750;52.040;7.472;2023-07-13T18:42:53;5.43;;;1.17;;
58972;SDS011;44750;52.040;7.472;2023-07-13T18:47:55;4.65;;;1.90;;
58972;SDS011;44750;52.040;7.472;2023-07-13T18:52:56;1.67;;;1.15;;
58972;SDS011;44750;52.040;7.472;2023-07-13T18:57:56;3.67;;;1.60;;
58972;SDS011;44750;52.040;7.472;2023-07-13T19:02:56;1.93;;;1.37;;
58972;SDS011;44750;52.040;7.472;2023-07-13T19:07:58;1.77;;;1.30;;
58972;SDS011;44750;52.040;7.472;2023-07-13T19:12:59;4.88;;;1.60;;
58972;SDS011;44750;52.040;7.472;2023-07-13T19:18:00;1.58;;;1.33;;
58972;SDS011;44750;52.040;7.472;2023-07-13T19:23:05;1.48;;;1.10;;
58972;SDS011;44750;52.040;7.472;2023-07-13T19:28:41;4.60;;;1.40;;
58972;SDS011;44750;52.040;7.472;2023-07-13T19:33:42;1.65;;;1.20;;
58972;SDS011;44750;52.040;7.472;2023-07-13T19:38:43;5.22;;;1.70;;
58972;SDS011;44750;52.040;7.472;2023-07-13T19:43:44;2.13;;;1.40;;
58972;SDS011;44750;52.040;7.472;2023-07-13T19:48:45;2.15;;;1.35;;
58972;SDS011;44750;52.040;7.472;2023-07-13T19:53:46;1.85;;;1.38;;
58972;SDS011;44750;52.040;7.472;2023-07-13T19:58:48;2.10;;;1.58;;
58972;SDS011;44750;52.040;7.472;2023-07-13T20:03:48;4.70;;;1.30;;
58972;SDS011;44750;52.040;7.472;2023-07-13T20:08:48;1.80;;;1.50;;
58972;SDS011;44750;52.040;7.472;2023-07-13T20:13:49;1.45;;;1.35;;
58972;SDS011;44750;52.040;7.472;2023-07-13T20:18:49;2.17;;;1.43;;
58972;SDS011;44750;52.040;7.472;2023-07-13T20:23:49;2.13;;;1.63;;
58972;SDS011;44750;52.040;7.472;2023-07-13T20:28:50;3.35;;;2.08;;
58972;SDS011;44750;52.040;7.472;2023-07-13T20:33:50;2.75;;;1.77;;
58972;SDS011;44750;52.040;7.472;2023-07-13T20:38:50;2.63;;;2.25;;
58972;SDS011;44750;52.040;7.472;2023-07-13T20:43:50;2.25;;;1.80;;
58972;SDS011;44750;52.040;7.472;2023-07-13T20:48:51;3.73;;;2.17;;
58972;SDS011;44750;52.040;7.472;2023-07-13T20:53:51;4.68;;;2.55;;
58972;SDS011;44750;52.040;7.472;2023-07-13T20:58:52;4.78;;;2.28;;
58972;SDS011;44750;52.040;7.472;2023-07-13T21:03:53;3.42;;;2.58;;
58972;SDS011;44750;52.040;7.472;2023-07-13T21:08:59;3.50;;;2.28;;
58972;SDS011;44750;52.040;7.472;2023-07-13T21:13:59;3.05;;;2.47;;
58972;SDS011;44750;52.040;7.472;2023-07-13T21:19:00;3.80;;;2.80;;
58972;SDS011;44750;52.040;7.472;2023-07-13T21:24:01;3.78;;;2.67;;
58972;SDS011;44750;52.040;7.472;2023-07-13T21:29:01;3.97;;;2.53;;
58972;SDS011;44750;52.040;7.472;2023-07-13T21:34:07;4.10;;;2.57;;
58972;SDS011;44750;52.040;7.472;2023-07-13T21:39:17;3.72;;;2.72;;
58972;SDS011;44750;52.040;7.472;2023-07-13T21:44:29;3.90;;;2.60;;
58972;SDS011;44750;52.040;7.472;2023-07-13T21:49:30;3.70;;;2.67;;
58972;SDS011;44750;52.040;7.472;2023-07-13T21:54:30;4.88;;;3.00;;
58972;SDS011;44750;52.040;7.472;2023-07-13T21:59:31;5.37;;;3.60;;
58972;SDS011;44750;52.040;7.472;2023-07-13T22:04:31;5.00;;;3.50;;
58972;SDS011;44750;52.040;7.472;2023-07-13T22:09:31;6.90;;;4.10;;
58972;SDS011;44750;52.040;7.472;2023-07-13T22:14:32;7.00;;;4.05;;
58972;SDS011;44750;52.040;7.472;2023-07-13T22:19:32;4.40;;;3.35;;
58972;SDS011;44750;52.040;7.472;2023-07-13T22:24:32;3.90;;;2.78;;
58972;SDS011;44750;52.040;7.472;2023-07-13T22:29:33;5.55;;;3.30;;
58972;SDS011;44750;52.040;7.472;2023-07-13T22:34:33;6.77;;;3.50;;
58972;SDS011;44750;52.040;7.472;2023-07-13T22:39:33;4.33;;;2.83;;
58972;SDS011;44750;52.040;7.472;2023-07-13T22:44:34;4.85;;;3.47;;
58972;SDS011;44750;52.040;7.472;2023-07-13T22:49:34;6.33;;;3.37;;
58972;SDS011;44750;52.040;7.472;2023-07-13T22:54:34;3.75;;;3.17;;
58972;SDS011;44750;52.040;7.472;2023-07-13T22:59:35;6.65;;;3.55;;
58972;SDS011;44750;52.040;7.472;2023-07-13T23:04:36;7.10;;;3.13;;
58972;SDS011;44750;52.040;7.472;2023-07-13T23:09:36;5.05;;;3.58;;
58972;SDS011;44750;52.040;7.472;2023-07-13T23:14:36;3.20;;;2.83;;
58972;SDS011;44750;52.040;7.472;2023-07-13T23:19:36;4.45;;;3.25;;
58972;SDS011;44750;52.040;7.472;2023-07-13T23:24:37;3.77;;;3.30;;
58972;SDS011;44750;52.040;7.472;2023-07-13T23:29:37;4.30;;;3.05;;
58972;SDS011;44750;52.040;7.472;2023-07-13T23:34:37;3.55;;;2.72;;
58972;SDS011;44750;52.040;7.472;2023-07-13T23:39:38;8.43;;;3.40;;
58972;SDS011;44750;52.040;7.472;2023-07-13T23:44:38;6.28;;;2.97;;
58972;SDS011;44750;52.040;7.472;2023-07-13T23:49:38;4.77;;;3.33;;
58972;SDS011;44750;52.040;7.472;2023-07-13T23:54:38;4.13;;;3.45;;
58972;SDS011;44750;52.040;7.472;2023-07-13T23:59:39;8.50;;;3.40;;
